createdAt,value
2022-11-28T00:01:20.073Z,8.15
2022-11-28T00:03:47.377Z,7.88
2022-11-28T00:06:15.220Z,8.63
2022-11-28T00:08:42.771Z,8.70
2022-11-28T00:11:12.455Z,7.47
2022-11-28T00:13:40.171Z,6.90
2022-11-28T00:16:09.582Z,7.60
2022-11-28T00:18:36.628Z,7.35
2022-11-28T00:21:10.193Z,7.50
2022-11-28T00:23:37.578Z,7.03
2022-11-28T00:26:08.079Z,6.95
2022-11-28T00:28:35.073Z,8.13
2022-11-28T00:31:02.220Z,7.18
2022-11-28T00:33:29.285Z,7.30
2022-11-28T00:36:04.279Z,6.60
2022-11-28T00:38:32.077Z,8.52
2022-11-28T00:41:15.997Z,8.13
2022-11-28T00:43:44.843Z,7.72
2022-11-28T00:46:13.578Z,8.50
2022-11-28T00:48:41.233Z,8.60
2022-11-28T00:51:14.432Z,8.50
2022-11-28T00:53:42.719Z,8.23
2022-11-28T00:56:15.082Z,8.02
2022-11-28T00:58:42.946Z,7.85
2022-11-28T01:01:11.921Z,8.10
2022-11-28T01:03:39.926Z,8.35
2022-11-28T01:06:08.123Z,7.60
2022-11-28T01:08:35.527Z,7.15
2022-11-28T01:11:03.230Z,7.30
2022-11-28T01:13:30.639Z,6.13
2022-11-28T01:15:58.847Z,7.45
2022-11-28T01:18:25.955Z,7.55
2022-11-28T01:20:52.939Z,7.47
2022-11-28T01:23:20.437Z,7.18
2022-11-28T01:25:47.476Z,7.35
2022-11-28T01:28:14.648Z,8.15
2022-11-28T01:30:41.763Z,6.78
2022-11-28T01:33:08.726Z,7.00
2022-11-28T01:35:35.778Z,6.10
2022-11-28T01:38:02.743Z,6.82
2022-11-28T01:40:29.924Z,6.30
2022-11-28T01:42:56.910Z,6.57
2022-11-28T01:45:33.580Z,6.00
2022-11-28T01:48:03.913Z,5.50
2022-11-28T01:50:33.189Z,6.60
2022-11-28T01:53:03.825Z,6.18
2022-11-28T01:55:35.593Z,5.95
2022-11-28T01:58:02.707Z,6.20
2022-11-28T02:00:29.908Z,5.40
2022-11-28T02:03:19.042Z,5.28
2022-11-28T02:05:47.552Z,5.68
2022-11-28T02:08:14.563Z,6.13
2022-11-28T02:10:50.520Z,5.43
2022-11-28T02:13:36.118Z,5.22
2022-11-28T02:16:30.588Z,5.75
2022-11-28T02:19:12.678Z,6.05
2022-11-28T02:22:19.343Z,5.60
2022-11-28T02:25:14.645Z,5.18
2022-11-28T02:28:20.602Z,5.55
2022-11-28T02:31:08.741Z,5.95
2022-11-28T02:33:59.657Z,6.43
2022-11-28T02:36:42.385Z,5.85
2022-11-28T02:39:31.442Z,5.28
2022-11-28T02:42:10.624Z,6.50
2022-11-28T02:45:06.862Z,6.00
2022-11-28T02:47:37.963Z,7.25
2022-11-28T02:50:47.674Z,7.82
2022-11-28T02:53:20.171Z,7.57
2022-11-28T02:55:48.850Z,7.97
2022-11-28T02:58:15.936Z,6.97
2022-11-28T03:00:45.641Z,6.57
2022-11-28T03:03:39.582Z,6.50
2022-11-28T03:06:19.149Z,6.28
2022-11-28T03:09:23.627Z,6.75
2022-11-28T03:12:08.345Z,5.90
2022-11-28T03:14:38.134Z,6.15
2022-11-28T03:17:44.405Z,6.90
2022-11-28T03:20:43.479Z,6.55
2022-11-28T03:23:21.447Z,6.88
2022-11-28T03:26:05.983Z,7.03
2022-11-28T03:28:45.368Z,6.05
2022-11-28T03:31:29.697Z,5.95
2022-11-28T03:33:59.683Z,6.55
2022-11-28T03:36:39.097Z,6.18
2022-11-28T03:39:11.192Z,5.75
2022-11-28T03:42:00.171Z,6.22
2022-11-28T03:44:43.040Z,5.53
2022-11-28T03:47:10.826Z,5.68
2022-11-28T03:49:42.126Z,5.55
2022-11-28T03:52:19.820Z,6.05
2022-11-28T03:55:09.917Z,4.83
2022-11-28T03:57:48.127Z,5.80
2022-11-28T04:00:16.079Z,5.68
2022-11-28T04:03:05.030Z,6.35
2022-11-28T04:05:32.170Z,6.65
2022-11-28T04:08:06.250Z,6.50
2022-11-28T04:10:38.362Z,5.85
2022-11-28T04:13:21.708Z,5.53
2022-11-28T04:16:00.928Z,5.22
2022-11-28T04:18:52.760Z,5.13
2022-11-28T04:21:34.503Z,5.72
2022-11-28T04:24:13.102Z,6.95
2022-11-28T04:26:53.114Z,6.00
2022-11-28T04:29:24.080Z,6.90
2022-11-28T04:31:56.114Z,5.80
2022-11-28T04:34:24.224Z,6.13
2022-11-28T04:36:54.192Z,5.85
2022-11-28T04:39:26.273Z,8.20
2022-11-28T04:42:02.088Z,7.18
2022-11-28T04:44:55.046Z,7.35
2022-11-28T04:47:23.077Z,5.70
2022-11-28T04:49:50.247Z,7.15
2022-11-28T04:52:27.365Z,6.18
2022-11-28T04:55:15.574Z,6.15
2022-11-28T04:57:55.707Z,5.75
2022-11-28T05:00:24.200Z,6.05
2022-11-28T05:02:53.290Z,6.28
2022-11-28T05:05:24.321Z,5.50
2022-11-28T05:07:52.429Z,5.80
2022-11-28T05:10:19.780Z,5.43
2022-11-28T05:12:46.859Z,5.68
2022-11-28T05:15:19.046Z,6.18
2022-11-28T05:17:46.977Z,6.28
2022-11-28T05:20:14.511Z,5.70
2022-11-28T05:22:41.813Z,5.50
2022-11-28T05:25:09.198Z,5.65
2022-11-28T05:27:36.430Z,6.27
2022-11-28T05:30:05.575Z,6.68
2022-11-28T05:32:33.004Z,6.18
2022-11-28T05:35:00.071Z,6.32
2022-11-28T05:37:27.273Z,7.10
2022-11-28T05:39:54.473Z,7.05
2022-11-28T05:42:21.713Z,6.32
2022-11-28T05:44:48.759Z,6.50
2022-11-28T05:47:18.507Z,6.05
2022-11-28T05:49:47.104Z,6.75
2022-11-28T05:54:40.943Z,6.93
2022-11-28T05:57:08.240Z,6.43
2022-11-28T05:59:35.469Z,6.28
2022-11-28T06:02:02.495Z,5.13
2022-11-28T06:04:29.534Z,5.35
2022-11-28T06:06:56.541Z,5.50
2022-11-28T06:09:26.050Z,6.07
2022-11-28T06:11:53.633Z,5.47
2022-11-28T06:14:20.615Z,5.00
2022-11-28T06:16:47.613Z,5.28
2022-11-28T06:19:14.612Z,5.68
2022-11-28T06:21:41.770Z,5.63
2022-11-28T06:24:10.768Z,5.20
2022-11-28T06:26:37.741Z,5.05
2022-11-28T06:29:04.729Z,5.15
2022-11-28T06:31:31.790Z,5.15
2022-11-28T06:33:58.980Z,5.38
2022-11-28T06:36:26.644Z,5.85
2022-11-28T06:38:54.296Z,5.83
2022-11-28T06:41:22.988Z,5.93
2022-11-28T06:43:50.549Z,6.68
2022-11-28T06:46:19.649Z,5.80
2022-11-28T06:48:50.565Z,6.40
2022-11-28T06:51:18.248Z,5.95
2022-11-28T06:53:45.234Z,5.50
2022-11-28T06:56:14.852Z,5.78
2022-11-28T06:58:42.676Z,5.40
2022-11-28T07:01:11.722Z,5.15
2022-11-28T07:03:39.703Z,5.80
2022-11-28T07:06:07.488Z,5.32
2022-11-28T07:08:35.226Z,5.10
2022-11-28T07:11:09.493Z,6.50
2022-11-28T07:13:36.683Z,5.90
2022-11-28T07:16:04.432Z,6.28
2022-11-28T07:18:31.491Z,6.53
2022-11-28T07:21:00.647Z,7.53
2022-11-28T07:23:27.635Z,6.20
2022-11-28T07:26:02.222Z,7.90
2022-11-28T07:28:30.654Z,7.70
2022-11-28T07:31:19.374Z,7.43
2022-11-28T07:33:49.041Z,6.78
2022-11-28T07:36:19.451Z,7.07
2022-11-28T07:38:47.806Z,6.55
2022-11-28T07:41:15.451Z,6.57
2022-11-28T07:43:43.951Z,6.60
2022-11-28T07:51:12.861Z,6.10
2022-11-28T07:53:40.355Z,6.13
2022-11-28T07:56:10.865Z,5.72
2022-11-28T07:58:39.035Z,5.40
2022-11-28T08:01:18.528Z,6.35
2022-11-28T08:03:47.101Z,6.38
2022-11-28T08:06:17.127Z,6.30
2022-11-28T08:08:47.069Z,5.65
2022-11-28T08:11:15.950Z,5.10
2022-11-28T08:13:43.845Z,5.53
2022-11-28T08:16:19.769Z,5.07
2022-11-28T08:18:48.014Z,5.55
2022-11-28T08:21:23.758Z,4.72
2022-11-28T08:23:52.253Z,4.82
2022-11-28T08:26:23.047Z,4.53
2022-11-28T08:28:54.123Z,5.72
2022-11-28T08:31:27.344Z,5.57
2022-11-28T08:33:58.266Z,5.45
2022-11-28T08:36:25.337Z,5.57
2022-11-28T08:41:39.835Z,4.82
2022-11-28T08:44:07.528Z,5.00
2022-11-28T08:46:34.493Z,5.50
2022-11-28T08:49:04.671Z,5.00
2022-11-28T08:51:32.208Z,4.93
2022-11-28T08:54:00.148Z,4.88
2022-11-28T08:56:27.928Z,4.40
2022-11-28T08:58:55.775Z,5.03
2022-11-28T09:01:25.591Z,4.80
2022-11-28T09:03:54.436Z,4.57
2022-11-28T09:06:22.277Z,4.80
2022-11-28T09:08:50.605Z,5.72
2022-11-28T09:11:20.887Z,4.80
2022-11-28T09:13:47.975Z,4.70
2022-11-28T09:16:16.067Z,5.50
2022-11-28T09:18:43.157Z,6.60
2022-11-28T09:21:12.312Z,5.95
2022-11-28T09:23:41.391Z,6.40
2022-11-28T09:26:16.498Z,5.80
2022-11-28T09:28:44.119Z,4.90
2022-11-28T09:31:12.633Z,5.90
2022-11-28T09:33:40.220Z,5.57
2022-11-28T09:36:20.793Z,5.30
2022-11-28T09:38:48.246Z,5.78
2022-11-28T09:41:36.382Z,5.72
2022-11-28T09:44:16.229Z,5.45
2022-11-28T09:46:44.190Z,4.75
2022-11-28T09:49:29.704Z,5.20
2022-11-28T09:52:14.848Z,4.00
2022-11-28T09:55:05.979Z,3.95
2022-11-28T09:57:40.314Z,3.95
2022-11-28T10:00:17.391Z,3.80
2022-11-28T10:03:21.981Z,3.75
2022-11-28T10:06:09.891Z,4.00
2022-11-28T10:09:01.983Z,3.75
2022-11-28T10:11:47.614Z,3.80
2022-11-28T10:14:44.793Z,3.97
2022-11-28T10:17:20.708Z,3.38
2022-11-28T10:20:02.909Z,4.15
2022-11-28T10:22:44.707Z,4.28
2022-11-28T10:25:23.736Z,4.07
2022-11-28T10:27:51.351Z,3.65
2022-11-28T10:30:27.584Z,3.78
2022-11-28T10:33:09.901Z,4.30
2022-11-28T10:35:46.293Z,4.40
2022-11-28T10:38:16.126Z,4.70
2022-11-28T10:40:47.057Z,4.72
2022-11-28T10:43:31.963Z,4.25
2022-11-28T10:46:30.153Z,4.82
2022-11-28T10:51:51.535Z,4.78
2022-11-28T10:54:40.517Z,5.38
2022-11-28T10:57:16.755Z,4.90
2022-11-28T11:00:01.797Z,4.95
2022-11-28T11:02:40.115Z,4.40
2022-11-28T11:05:11.745Z,4.15
2022-11-28T11:07:39.100Z,4.57
2022-11-28T11:10:25.188Z,4.00
2022-11-28T11:12:52.908Z,4.45
2022-11-28T11:15:24.861Z,3.77
2022-11-28T11:17:52.026Z,4.60
2022-11-28T11:20:36.862Z,3.80
2022-11-28T11:23:17.301Z,3.67
2022-11-28T11:25:55.147Z,4.47
2022-11-28T11:28:42.789Z,3.53
2022-11-28T11:31:39.048Z,3.97
2022-11-28T11:34:12.973Z,4.03
2022-11-28T11:36:39.993Z,4.25
2022-11-28T11:39:18.948Z,4.28
2022-11-28T11:41:51.689Z,3.97
2022-11-28T11:44:29.450Z,3.35
2022-11-28T11:47:05.669Z,3.70
2022-11-28T11:49:35.293Z,3.58
2022-11-28T11:52:24.090Z,3.75
2022-11-28T11:54:57.200Z,4.18
2022-11-28T11:57:43.133Z,3.20
2022-11-28T12:00:10.339Z,3.72
2022-11-28T12:03:04.726Z,2.90
2022-11-28T12:06:12.782Z,3.08
2022-11-28T12:09:00.632Z,3.08
2022-11-28T12:11:46.547Z,3.92
2022-11-28T12:14:32.591Z,4.65
2022-11-28T12:17:25.669Z,3.60
2022-11-28T12:20:05.329Z,3.35
2022-11-28T12:22:32.249Z,3.17
2022-11-28T12:25:04.218Z,2.90
2022-11-28T12:27:37.027Z,2.70
2022-11-28T12:30:22.009Z,3.42
2022-11-28T12:32:57.972Z,2.88
2022-11-28T12:35:38.379Z,3.10
2022-11-28T12:38:11.910Z,2.63
2022-11-28T12:41:15.055Z,2.60
2022-11-28T12:43:54.210Z,2.92
2022-11-28T12:46:39.760Z,3.10
2022-11-28T12:49:19.828Z,2.92
2022-11-28T12:52:10.924Z,2.78
2022-11-28T12:54:55.935Z,2.67
2022-11-28T12:57:43.763Z,3.00
2022-11-28T13:00:20.441Z,2.65
2022-11-28T13:03:19.108Z,3.20
2022-11-28T13:06:26.677Z,2.90
2022-11-28T13:09:03.025Z,2.85
2022-11-28T13:11:40.125Z,3.85
2022-11-28T13:14:34.544Z,3.13
2022-11-28T13:17:19.513Z,3.58
2022-11-28T13:20:13.824Z,3.22
2022-11-28T13:22:46.663Z,3.05
2022-11-28T13:25:38.743Z,2.72
2022-11-28T13:28:19.613Z,3.20
2022-11-28T13:30:55.839Z,3.38
2022-11-28T13:33:55.155Z,3.50
2022-11-28T13:39:47.127Z,3.10
2022-11-28T13:42:59.044Z,2.55
2022-11-28T13:45:32.429Z,3.00
2022-11-28T13:48:00.921Z,3.40
2022-11-28T13:53:04.180Z,2.95
2022-11-28T13:55:46.789Z,2.30
2022-11-28T13:58:17.126Z,2.50
2022-11-28T14:00:59.952Z,3.30
2022-11-28T14:03:27.069Z,3.30
2022-11-28T14:05:57.369Z,3.10
2022-11-28T14:08:40.400Z,2.47
2022-11-28T14:11:10.513Z,2.78
2022-11-28T14:13:50.018Z,2.70
2022-11-28T14:16:26.357Z,2.88
2022-11-28T14:19:39.795Z,3.00
2022-11-28T14:22:24.891Z,4.00
2022-11-28T14:25:24.185Z,3.97
2022-11-28T14:28:14.776Z,4.10
2022-11-28T14:30:44.522Z,4.30
2022-11-28T14:33:36.936Z,4.15
2022-11-28T14:36:21.332Z,4.57
2022-11-28T14:39:00.899Z,3.88
2022-11-28T14:41:29.166Z,4.30
2022-11-28T14:44:34.925Z,4.45
2022-11-28T14:47:13.544Z,3.72
2022-11-28T14:49:40.549Z,5.30
2022-11-28T14:55:12.434Z,4.47
2022-11-28T14:58:03.259Z,4.70
2022-11-28T15:00:47.365Z,4.60
2022-11-28T15:03:17.304Z,4.63
2022-11-28T15:05:52.708Z,4.30
2022-11-28T15:09:04.865Z,3.72
2022-11-28T15:12:17.326Z,4.10
2022-11-28T15:14:51.906Z,3.95
2022-11-28T15:17:23.043Z,4.30
2022-11-28T15:19:51.081Z,5.22
2022-11-28T15:22:47.576Z,6.05
2022-11-28T15:25:23.217Z,5.50
2022-11-28T15:27:51.446Z,5.18
2022-11-28T15:30:23.751Z,5.07
2022-11-28T15:33:00.134Z,4.90
2022-11-28T15:35:28.545Z,4.07
2022-11-28T15:37:58.231Z,4.80
2022-11-28T15:40:32.485Z,4.47
2022-11-28T15:43:01.118Z,4.28
2022-11-28T15:45:32.291Z,4.90
2022-11-28T15:47:59.424Z,5.38
2022-11-28T15:50:29.553Z,4.65
2022-11-28T15:53:15.234Z,4.68
2022-11-28T15:55:43.950Z,5.30
2022-11-28T15:58:15.070Z,5.07
2022-11-28T16:00:45.373Z,5.18
2022-11-28T16:03:22.621Z,4.63
2022-11-28T16:05:52.573Z,5.38
2022-11-28T16:08:47.542Z,5.10
2022-11-28T16:11:19.858Z,5.60
2022-11-28T16:13:48.003Z,5.47
2022-11-28T16:16:28.835Z,5.97
2022-11-28T16:19:05.829Z,5.90
2022-11-28T16:21:40.153Z,5.85
2022-11-28T16:24:24.192Z,6.00
2022-11-28T16:27:00.197Z,5.72
2022-11-28T16:29:34.647Z,5.85
2022-11-28T16:32:39.991Z,5.55
2022-11-28T16:35:12.374Z,6.25
2022-11-28T16:37:39.579Z,6.22
2022-11-28T16:40:21.776Z,7.10
2022-11-28T16:43:04.355Z,7.43
2022-11-28T16:45:33.295Z,7.95
2022-11-28T16:48:09.334Z,9.25
2022-11-28T16:50:37.706Z,11.23
2022-11-28T16:53:05.458Z,11.77
2022-11-28T16:55:32.455Z,12.03
2022-11-28T16:58:07.347Z,11.77
2022-11-28T17:00:35.291Z,12.25
2022-11-28T17:03:03.503Z,11.48
2022-11-28T17:05:30.882Z,9.45
2022-11-28T17:07:58.100Z,9.68
2022-11-28T17:10:25.626Z,9.75
2022-11-28T17:12:52.633Z,11.77
2022-11-28T17:15:22.814Z,10.98
2022-11-28T17:17:49.809Z,9.77
2022-11-28T17:20:17.905Z,9.30
2022-11-28T17:22:47.764Z,8.35
2022-11-28T17:25:20.447Z,8.35
2022-11-28T17:27:48.279Z,8.38
2022-11-28T17:30:16.937Z,7.78
2022-11-28T17:35:14.278Z,9.32
2022-11-28T17:37:41.244Z,9.82
2022-11-28T17:40:27.179Z,9.90
2022-11-28T17:42:54.239Z,10.27
2022-11-28T17:45:22.723Z,10.88
2022-11-28T17:47:49.645Z,10.63
2022-11-28T17:50:17.643Z,11.52
2022-11-28T17:52:44.776Z,11.50
2022-11-28T17:55:12.077Z,11.30
2022-11-28T17:57:39.402Z,10.85
2022-11-28T18:00:09.236Z,11.25
2022-11-28T18:02:43.368Z,10.15
2022-11-28T18:05:10.740Z,10.73
2022-11-28T18:07:39.536Z,10.23
2022-11-28T18:10:09.950Z,10.35
2022-11-28T18:12:38.220Z,9.98
2022-11-28T18:15:05.705Z,10.55
2022-11-28T18:17:33.106Z,10.10
2022-11-28T18:20:00.088Z,11.43
2022-11-28T18:22:27.876Z,10.17
2022-11-28T18:24:55.205Z,11.43
2022-11-28T18:27:22.811Z,10.95
2022-11-28T18:29:50.041Z,11.60
2022-11-28T18:32:17.317Z,11.18
2022-11-28T18:34:44.370Z,11.70
2022-11-28T18:37:11.489Z,11.38
2022-11-28T18:39:38.592Z,11.82
2022-11-28T18:42:05.928Z,12.32
2022-11-28T18:44:33.597Z,12.55
2022-11-28T18:47:00.637Z,12.43
2022-11-28T18:49:27.685Z,11.73
2022-11-28T18:51:56.797Z,12.50
2022-11-28T18:54:23.819Z,11.93
2022-11-28T18:56:50.994Z,11.57
2022-11-28T18:59:18.273Z,12.50
2022-11-28T19:01:45.253Z,12.70
2022-11-28T19:04:13.648Z,14.00
2022-11-28T19:06:41.263Z,13.32
2022-11-28T19:09:12.124Z,14.52
2022-11-28T19:11:40.542Z,14.55
2022-11-28T19:14:08.576Z,16.50
2022-11-28T19:16:37.831Z,15.25
2022-11-28T19:19:06.432Z,16.45
2022-11-28T19:21:35.953Z,15.13
2022-11-28T19:24:04.372Z,14.17
2022-11-28T19:26:34.077Z,17.90
2022-11-28T19:29:03.094Z,17.13
2022-11-28T19:31:35.510Z,16.02
2022-11-28T19:34:05.541Z,15.48
2022-11-28T19:36:41.105Z,14.80
2022-11-28T19:39:12.700Z,15.35
2022-11-28T19:41:40.210Z,17.27
2022-11-28T19:44:09.430Z,22.00
2022-11-28T19:46:36.720Z,23.48
2022-11-28T19:49:09.012Z,21.63
2022-11-28T19:51:36.109Z,20.92
2022-11-28T19:54:04.210Z,21.52
2022-11-28T19:56:33.369Z,21.45
2022-11-28T19:59:00.649Z,22.38
2022-11-28T20:01:28.404Z,21.40
2022-11-28T20:03:55.839Z,20.95
2022-11-28T20:06:28.912Z,20.02
2022-11-28T20:08:58.393Z,20.30
2022-11-28T20:11:28.647Z,20.50
2022-11-28T20:14:05.043Z,19.65
2022-11-28T20:16:33.626Z,19.17
2022-11-28T20:19:01.923Z,19.67
2022-11-28T20:21:29.801Z,20.58
2022-11-28T20:26:27.093Z,19.42
2022-11-28T20:28:56.173Z,19.27
2022-11-28T20:31:36.542Z,19.50
2022-11-28T20:34:05.387Z,19.35
2022-11-28T20:36:33.681Z,17.98
2022-11-28T20:39:01.517Z,20.30
2022-11-28T20:41:29.273Z,17.90
2022-11-28T20:43:56.782Z,18.73
2022-11-28T20:46:32.787Z,19.45
2022-11-28T20:49:06.015Z,20.55
2022-11-28T20:51:34.789Z,19.33
2022-11-28T20:54:02.613Z,20.08
2022-11-28T20:56:31.880Z,19.87
2022-11-28T20:59:00.804Z,21.23
2022-11-28T21:01:33.276Z,21.08
2022-11-28T21:04:04.868Z,22.55
2022-11-28T21:06:32.081Z,25.73
2022-11-28T21:09:04.290Z,23.55
2022-11-28T21:11:55.636Z,24.55
2022-11-28T21:14:19.397Z,23.17
2022-11-28T21:16:46.475Z,21.67
2022-11-28T21:19:13.544Z,22.92
2022-11-28T21:21:40.868Z,22.67
2022-11-28T21:24:11.068Z,24.33
2022-11-28T21:26:43.193Z,25.42
2022-11-28T21:29:13.874Z,22.58
2022-11-28T21:31:43.457Z,22.90
2022-11-28T21:34:16.701Z,20.70
2022-11-28T21:36:44.304Z,20.38
2022-11-28T21:39:17.373Z,20.30
2022-11-28T21:41:44.840Z,21.88
2022-11-28T21:44:11.997Z,21.52
2022-11-28T21:46:39.153Z,19.80
2022-11-28T21:49:06.155Z,20.15
2022-11-28T21:51:37.754Z,19.75
2022-11-28T21:54:04.860Z,20.90
2022-11-28T21:56:32.138Z,20.65
2022-11-28T21:58:59.320Z,20.60
2022-11-28T22:01:26.544Z,20.60
2022-11-28T22:03:59.050Z,19.85
2022-11-28T22:06:29.557Z,21.50
2022-11-28T22:08:57.540Z,21.27
2022-11-28T22:11:25.361Z,21.33
2022-11-28T22:13:52.905Z,20.80
2022-11-28T22:16:26.363Z,22.20
2022-11-28T22:18:55.371Z,21.38
2022-11-28T22:24:10.619Z,20.75
2022-11-28T22:26:38.213Z,20.92
2022-11-28T22:29:05.489Z,19.75
2022-11-28T22:31:32.941Z,21.52
2022-11-28T22:34:00.128Z,20.92
2022-11-28T22:36:27.339Z,21.92
2022-11-28T22:38:55.745Z,20.42
2022-11-28T22:41:28.794Z,20.60
2022-11-28T22:44:00.828Z,19.73
2022-11-28T22:46:29.870Z,19.67
2022-11-28T22:49:02.455Z,21.60
2022-11-28T22:51:31.523Z,19.45
2022-11-28T22:54:01.254Z,20.33
2022-11-28T22:56:31.625Z,20.02
2022-11-28T22:58:59.397Z,21.67
2022-11-28T23:01:29.690Z,19.40
2022-11-28T23:03:57.222Z,18.40
2022-11-28T23:06:27.058Z,19.95
2022-11-28T23:08:55.840Z,19.88
2022-11-28T23:11:27.808Z,20.88
2022-11-28T23:13:55.391Z,19.13
2022-11-28T23:16:38.488Z,17.33
2022-11-28T23:19:10.466Z,18.13
2022-11-28T23:21:41.706Z,17.23
2022-11-28T23:24:17.579Z,18.13
2022-11-28T23:26:46.499Z,16.50
2022-11-28T23:29:14.568Z,16.10
2022-11-28T23:31:43.376Z,18.20
2022-11-28T23:34:11.253Z,16.77
2022-11-28T23:36:42.959Z,18.30
2022-11-28T23:39:14.182Z,18.48
2022-11-28T23:41:41.868Z,16.27
2022-11-28T23:44:10.817Z,17.20
2022-11-28T23:46:38.202Z,17.52
2022-11-28T23:49:05.782Z,17.13
2022-11-28T23:51:32.997Z,16.42
2022-11-28T23:54:00.087Z,16.77
2022-11-28T23:56:32.559Z,14.85
2022-11-28T23:59:01.767Z,14.90
